sensor_id;sensor_type;location;lat;lon;timestamp;P1;durP1;ratioP1;P2;durP2;ratioP2
70487;SDS011;57976;48.174;16.370;2023-05-10T00:00:16;5.90;;;2.50;;
70487;SDS011;57976;48.174;16.370;2023-05-10T00:02:21;5.80;;;2.20;;
70487;SDS011;57976;48.174;16.370;2023-05-10T00:04:26;5.50;;;2.30;;
70487;SDS011;57976;48.174;16.370;2023-05-10T00:06:31;6.20;;;2.70;;
70487;SDS011;57976;48.174;16.370;2023-05-10T00:08:35;6.70;;;2.50;;
70487;SDS011;57976;48.174;16.370;2023-05-10T00:10:40;6.00;;;2.40;;
70487;SDS011;57976;48.174;16.370;2023-05-10T00:12:45;6.70;;;2.50;;
70487;SDS011;57976;48.174;16.370;2023-05-10T00:14:50;6.10;;;2.60;;
70487;SDS011;57976;48.174;16.370;2023-05-10T00:16:54;6.60;;;2.70;;
70487;SDS011;57976;48.174;16.370;2023-05-10T00:18:59;6.80;;;2.50;;
70487;SDS011;57976;48.174;16.370;2023-05-10T00:21:04;6.80;;;2.70;;
70487;SDS011;57976;48.174;16.370;2023-05-10T00:23:09;6.00;;;2.60;;
70487;SDS011;57976;48.174;16.370;2023-05-10T00:25:13;7.50;;;2.70;;
70487;SDS011;57976;48.174;16.370;2023-05-10T00:27:18;6.50;;;2.60;;
70487;SDS011;57976;48.174;16.370;2023-05-10T00:29:23;6.50;;;2.50;;
70487;SDS011;57976;48.174;16.370;2023-05-10T00:31:28;5.90;;;2.40;;
70487;SDS011;57976;48.174;16.370;2023-05-10T00:33:33;7.90;;;2.70;;
70487;SDS011;57976;48.174;16.370;2023-05-10T00:35:38;8.00;;;2.50;;
70487;SDS011;57976;48.174;16.370;2023-05-10T00:37:42;5.60;;;2.40;;
70487;SDS011;57976;48.174;16.370;2023-05-10T00:39:47;7.20;;;2.70;;
70487;SDS011;57976;48.174;16.370;2023-05-10T00:41:52;5.90;;;2.50;;
70487;SDS011;57976;48.174;16.370;2023-05-10T00:43:57;7.50;;;2.60;;
70487;SDS011;57976;48.174;16.370;2023-05-10T00:46:02;6.10;;;2.40;;
70487;SDS011;57976;48.174;16.370;2023-05-10T00:48:07;6.30;;;2.50;;
70487;SDS011;57976;48.174;16.370;2023-05-10T00:50:12;5.70;;;2.20;;
70487;SDS011;57976;48.174;16.370;2023-05-10T00:52:18;5.90;;;2.50;;
70487;SDS011;57976;48.174;16.370;2023-05-10T00:54:23;5.80;;;2.10;;
70487;SDS011;57976;48.174;16.370;2023-05-10T00:56:28;5.50;;;2.10;;
70487;SDS011;57976;48.174;16.370;2023-05-10T00:58:33;6.00;;;2.40;;
70487;SDS011;57976;48.174;16.370;2023-05-10T01:00:38;6.50;;;2.30;;
70487;SDS011;57976;48.174;16.370;2023-05-10T01:05:30;6.00;;;2.20;;
70487;SDS011;57976;48.174;16.370;2023-05-10T01:07:35;6.40;;;2.60;;
70487;SDS011;57976;48.174;16.370;2023-05-10T01:09:40;7.00;;;2.60;;
70487;SDS011;57976;48.174;16.370;2023-05-10T01:11:47;6.30;;;2.60;;
70487;SDS011;57976;48.174;16.370;2023-05-10T01:13:53;6.50;;;2.60;;
70487;SDS011;57976;48.174;16.370;2023-05-10T01:16:00;6.80;;;2.50;;
70487;SDS011;57976;48.174;16.370;2023-05-10T01:18:06;5.80;;;2.50;;
70487;SDS011;57976;48.174;16.370;2023-05-10T01:20:13;6.90;;;2.70;;
70487;SDS011;57976;48.174;16.370;2023-05-10T01:25:18;6.50;;;2.60;;
70487;SDS011;57976;48.174;16.370;2023-05-10T01:27:44;6.60;;;2.50;;
70487;SDS011;57976;48.174;16.370;2023-05-10T01:30:05;6.00;;;2.40;;
70487;SDS011;57976;48.174;16.370;2023-05-10T01:32:28;7.10;;;2.60;;
70487;SDS011;57976;48.174;16.370;2023-05-10T01:34:41;6.60;;;2.80;;
70487;SDS011;57976;48.174;16.370;2023-05-10T01:36:51;7.40;;;2.70;;
70487;SDS011;57976;48.174;16.370;2023-05-10T01:39:05;6.50;;;2.40;;
70487;SDS011;57976;48.174;16.370;2023-05-10T01:41:19;7.20;;;2.60;;
70487;SDS011;57976;48.174;16.370;2023-05-10T01:43:31;6.50;;;2.50;;
70487;SDS011;57976;48.174;16.370;2023-05-10T01:45:41;5.90;;;2.40;;
70487;SDS011;57976;48.174;16.370;2023-05-10T01:47:57;7.80;;;2.70;;
70487;SDS011;57976;48.174;16.370;2023-05-10T01:50:10;8.80;;;2.70;;
70487;SDS011;57976;48.174;16.370;2023-05-10T01:52:20;7.20;;;2.50;;
70487;SDS011;57976;48.174;16.370;2023-05-10T01:54:29;7.60;;;2.60;;
70487;SDS011;57976;48.174;16.370;2023-05-10T01:56:37;6.70;;;2.60;;
70487;SDS011;57976;48.174;16.370;2023-05-10T01:58:43;5.80;;;2.30;;
70487;SDS011;57976;48.174;16.370;2023-05-10T02:00:51;5.80;;;2.50;;
70487;SDS011;57976;48.174;16.370;2023-05-10T02:02:57;7.20;;;2.80;;
70487;SDS011;57976;48.174;16.370;2023-05-10T02:05:04;6.90;;;2.50;;
70487;SDS011;57976;48.174;16.370;2023-05-10T02:07:11;7.00;;;2.80;;
70487;SDS011;57976;48.174;16.370;2023-05-10T02:09:17;6.40;;;2.60;;
70487;SDS011;57976;48.174;16.370;2023-05-10T02:11:23;7.10;;;2.70;;
70487;SDS011;57976;48.174;16.370;2023-05-10T02:13:30;6.70;;;2.90;;
70487;SDS011;57976;48.174;16.370;2023-05-10T02:15:38;7.30;;;2.80;;
70487;SDS011;57976;48.174;16.370;2023-05-10T02:17:47;6.20;;;2.60;;
70487;SDS011;57976;48.174;16.370;2023-05-10T02:19:52;7.00;;;2.90;;
70487;SDS011;57976;48.174;16.370;2023-05-10T02:21:59;7.20;;;3.00;;
70487;SDS011;57976;48.174;16.370;2023-05-10T02:24:07;6.70;;;2.80;;
70487;SDS011;57976;48.174;16.370;2023-05-10T02:26:14;7.70;;;3.00;;
70487;SDS011;57976;48.174;16.370;2023-05-10T02:28:21;6.50;;;2.50;;
70487;SDS011;57976;48.174;16.370;2023-05-10T02:30:27;7.80;;;2.80;;
70487;SDS011;57976;48.174;16.370;2023-05-10T10:36:00;5.40;;;1.90;;
70487;SDS011;57976;48.174;16.370;2023-05-10T10:38:08;5.60;;;2.00;;
70487;SDS011;57976;48.174;16.370;2023-05-10T10:40:27;5.00;;;1.90;;
70487;SDS011;57976;48.174;16.370;2023-05-10T10:42:46;6.90;;;1.70;;
70487;SDS011;57976;48.174;16.370;2023-05-10T10:44:53;4.70;;;1.70;;
70487;SDS011;57976;48.174;16.370;2023-05-10T10:47:23;6.60;;;1.90;;
70487;SDS011;57976;48.174;16.370;2023-05-10T10:49:32;5.70;;;1.70;;
70487;SDS011;57976;48.174;16.370;2023-05-10T10:52:04;6.20;;;1.90;;
70487;SDS011;57976;48.174;16.370;2023-05-10T10:54:18;4.50;;;1.90;;
70487;SDS011;57976;48.174;16.370;2023-05-10T10:56:31;5.10;;;1.80;;
70487;SDS011;57976;48.174;16.370;2023-05-10T10:58:39;5.00;;;1.50;;
70487;SDS011;57976;48.174;16.370;2023-05-10T11:00:53;5.40;;;1.90;;
70487;SDS011;57976;48.174;16.370;2023-05-10T11:03:14;4.80;;;1.90;;
70487;SDS011;57976;48.174;16.370;2023-05-10T11:05:32;4.90;;;1.90;;
70487;SDS011;57976;48.174;16.370;2023-05-10T11:07:52;4.70;;;1.80;;
70487;SDS011;57976;48.174;16.370;2023-05-10T11:09:58;5.70;;;1.90;;
70487;SDS011;57976;48.174;16.370;2023-05-10T11:12:09;6.20;;;1.90;;
70487;SDS011;57976;48.174;16.370;2023-05-10T11:14:14;7.30;;;2.10;;
70487;SDS011;57976;48.174;16.370;2023-05-10T11:16:24;6.80;;;2.00;;
70487;SDS011;57976;48.174;16.370;2023-05-10T11:18:30;4.40;;;1.90;;
70487;SDS011;57976;48.174;16.370;2023-05-10T11:20:39;4.80;;;2.00;;
70487;SDS011;57976;48.174;16.370;2023-05-10T11:22:50;4.70;;;2.00;;
70487;SDS011;57976;48.174;16.370;2023-05-10T11:24:59;6.60;;;1.90;;
70487;SDS011;57976;48.174;16.370;2023-05-10T11:27:04;5.10;;;1.80;;
70487;SDS011;57976;48.174;16.370;2023-05-10T11:29:10;4.40;;;1.70;;
70487;SDS011;57976;48.174;16.370;2023-05-10T11:31:17;6.20;;;1.90;;
70487;SDS011;57976;48.174;16.370;2023-05-10T11:33:23;6.10;;;1.60;;
70487;SDS011;57976;48.174;16.370;2023-05-10T11:35:28;4.70;;;1.70;;
70487;SDS011;57976;48.174;16.370;2023-05-10T11:37:33;5.90;;;1.80;;
70487;SDS011;57976;48.174;16.370;2023-05-10T11:39:38;4.30;;;1.50;;
70487;SDS011;57976;48.174;16.370;2023-05-10T11:41:50;4.20;;;1.80;;
70487;SDS011;57976;48.174;16.370;2023-05-10T11:43:55;4.50;;;1.80;;
70487;SDS011;57976;48.174;16.370;2023-05-10T11:46:01;4.20;;;1.90;;
70487;SDS011;57976;48.174;16.370;2023-05-10T11:48:06;4.60;;;1.80;;
70487;SDS011;57976;48.174;16.370;2023-05-10T11:50:12;3.70;;;1.50;;
70487;SDS011;57976;48.174;16.370;2023-05-10T11:52:17;5.90;;;2.10;;
70487;SDS011;57976;48.174;16.370;2023-05-10T11:54:23;5.00;;;1.70;;
70487;SDS011;57976;48.174;16.370;2023-05-10T11:56:27;5.00;;;1.80;;
70487;SDS011;57976;48.174;16.370;2023-05-10T11:58:35;5.40;;;2.10;;
70487;SDS011;57976;48.174;16.370;2023-05-10T12:00:41;5.10;;;2.00;;
70487;SDS011;57976;48.174;16.370;2023-05-10T12:02:46;5.50;;;2.40;;
70487;SDS011;57976;48.174;16.370;2023-05-10T12:04:51;6.00;;;2.40;;
70487;SDS011;57976;48.174;16.370;2023-05-10T12:06:58;5.30;;;1.80;;
70487;SDS011;57976;48.174;16.370;2023-05-10T12:09:04;4.80;;;1.80;;
70487;SDS011;57976;48.174;16.370;2023-05-10T12:11:10;6.00;;;2.10;;
70487;SDS011;57976;48.174;16.370;2023-05-10T12:13:16;4.50;;;1.80;;
70487;SDS011;57976;48.174;16.370;2023-05-10T12:15:23;5.50;;;1.80;;
70487;SDS011;57976;48.174;16.370;2023-05-10T12:17:28;5.10;;;2.00;;
70487;SDS011;57976;48.174;16.370;2023-05-10T12:19:38;5.40;;;2.10;;
70487;SDS011;57976;48.174;16.370;2023-05-10T12:21:44;5.20;;;1.90;;
70487;SDS011;57976;48.174;16.370;2023-05-10T12:23:49;6.30;;;1.70;;
70487;SDS011;57976;48.174;16.370;2023-05-10T12:26:01;4.70;;;1.60;;
70487;SDS011;57976;48.174;16.370;2023-05-10T12:28:07;3.90;;;1.50;;
70487;SDS011;57976;48.174;16.370;2023-05-10T12:30:13;4.80;;;1.70;;
70487;SDS011;57976;48.174;16.370;2023-05-10T12:32:24;4.10;;;1.50;;
70487;SDS011;57976;48.174;16.370;2023-05-10T12:34:42;5.70;;;2.00;;
70487;SDS011;57976;48.174;16.370;2023-05-10T12:36:51;4.40;;;1.60;;
70487;SDS011;57976;48.174;16.370;2023-05-10T12:39:03;5.40;;;1.80;;
70487;SDS011;57976;48.174;16.370;2023-05-10T12:41:08;5.30;;;2.20;;
70487;SDS011;57976;48.174;16.370;2023-05-10T12:43:14;4.00;;;1.60;;
70487;SDS011;57976;48.174;16.370;2023-05-10T12:45:18;4.70;;;1.40;;
70487;SDS011;57976;48.174;16.370;2023-05-10T12:47:24;4.90;;;2.30;;
70487;SDS011;57976;48.174;16.370;2023-05-10T12:49:29;4.50;;;1.70;;
70487;SDS011;57976;48.174;16.370;2023-05-10T12:51:34;4.90;;;2.10;;
70487;SDS011;57976;48.174;16.370;2023-05-10T12:53:39;5.00;;;1.80;;
70487;SDS011;57976;48.174;16.370;2023-05-10T12:55:48;6.40;;;2.20;;
70487;SDS011;57976;48.174;16.370;2023-05-10T12:57:52;5.80;;;2.10;;
70487;SDS011;57976;48.174;16.370;2023-05-10T12:59:57;8.90;;;2.60;;
70487;SDS011;57976;48.174;16.370;2023-05-10T13:02:02;7.50;;;1.90;;
70487;SDS011;57976;48.174;16.370;2023-05-10T13:04:07;5.70;;;2.10;;
70487;SDS011;57976;48.174;16.370;2023-05-10T13:06:12;4.80;;;2.10;;
70487;SDS011;57976;48.174;16.370;2023-05-10T13:08:17;5.70;;;2.50;;
70487;SDS011;57976;48.174;16.370;2023-05-10T13:10:22;5.00;;;2.50;;
70487;SDS011;57976;48.174;16.370;2023-05-10T13:12:27;6.80;;;2.10;;
70487;SDS011;57976;48.174;16.370;2023-05-10T13:14:32;5.40;;;2.40;;
70487;SDS011;57976;48.174;16.370;2023-05-10T13:16:37;8.20;;;3.00;;
70487;SDS011;57976;48.174;16.370;2023-05-10T13:18:43;5.10;;;2.40;;
70487;SDS011;57976;48.174;16.370;2023-05-10T13:20:48;6.90;;;2.80;;
70487;SDS011;57976;48.174;16.370;2023-05-10T13:22:53;5.80;;;2.60;;
70487;SDS011;57976;48.174;16.370;2023-05-10T13:24:58;6.20;;;2.60;;
70487;SDS011;57976;48.174;16.370;2023-05-10T13:27:03;7.90;;;3.20;;
70487;SDS011;57976;48.174;16.370;2023-05-10T13:29:08;4.90;;;2.40;;
70487;SDS011;57976;48.174;16.370;2023-05-10T13:31:13;6.20;;;2.40;;
70487;SDS011;57976;48.174;16.370;2023-05-10T13:33:18;4.90;;;2.40;;
70487;SDS011;57976;48.174;16.370;2023-05-10T13:35:23;4.80;;;2.20;;
70487;SDS011;57976;48.174;16.370;2023-05-10T13:37:28;5.10;;;2.00;;
70487;SDS011;57976;48.174;16.370;2023-05-10T13:39:33;5.70;;;2.20;;
70487;SDS011;57976;48.174;16.370;2023-05-10T13:41:38;6.00;;;2.50;;
70487;SDS011;57976;48.174;16.370;2023-05-10T13:43:43;6.90;;;2.40;;
70487;SDS011;57976;48.174;16.370;2023-05-10T13:45:48;5.50;;;2.40;;
70487;SDS011;57976;48.174;16.370;2023-05-10T13:47:53;5.20;;;2.20;;
70487;SDS011;57976;48.174;16.370;2023-05-10T13:49:58;5.80;;;2.60;;
70487;SDS011;57976;48.174;16.370;2023-05-10T13:52:03;5.60;;;2.20;;
70487;SDS011;57976;48.174;16.370;2023-05-10T13:54:08;5.30;;;2.40;;
70487;SDS011;57976;48.174;16.370;2023-05-10T13:56:15;6.30;;;2.50;;
70487;SDS011;57976;48.174;16.370;2023-05-10T13:58:20;5.20;;;2.20;;
70487;SDS011;57976;48.174;16.370;2023-05-10T14:00:26;6.40;;;2.50;;
70487;SDS011;57976;48.174;16.370;2023-05-10T14:02:31;5.90;;;2.50;;
70487;SDS011;57976;48.174;16.370;2023-05-10T14:04:36;5.00;;;2.20;;
70487;SDS011;57976;48.174;16.370;2023-05-10T14:06:41;5.00;;;2.50;;
70487;SDS011;57976;48.174;16.370;2023-05-10T14:08:46;6.10;;;2.30;;
70487;SDS011;57976;48.174;16.370;2023-05-10T14:10:51;5.00;;;2.50;;
70487;SDS011;57976;48.174;16.370;2023-05-10T14:12:55;5.50;;;2.50;;
70487;SDS011;57976;48.174;16.370;2023-05-10T14:15:00;4.60;;;2.10;;
70487;SDS011;57976;48.174;16.370;2023-05-10T14:17:05;5.30;;;2.10;;
70487;SDS011;57976;48.174;16.370;2023-05-10T14:19:14;5.60;;;2.60;;
70487;SDS011;57976;48.174;16.370;2023-05-10T14:21:18;5.80;;;2.30;;
70487;SDS011;57976;48.174;16.370;2023-05-10T14:23:23;6.20;;;2.50;;
70487;SDS011;57976;48.174;16.370;2023-05-10T14:25:28;5.60;;;2.50;;
70487;SDS011;57976;48.174;16.370;2023-05-10T14:27:36;6.70;;;2.70;;
70487;SDS011;57976;48.174;16.370;2023-05-10T14:29:41;6.10;;;2.50;;
70487;SDS011;57976;48.174;16.370;2023-05-10T14:31:46;5.60;;;2.50;;
70487;SDS011;57976;48.174;16.370;2023-05-10T14:33:51;5.90;;;2.20;;
70487;SDS011;57976;48.174;16.370;2023-05-10T14:35:56;5.80;;;2.40;;
70487;SDS011;57976;48.174;16.370;2023-05-10T14:38:01;8.50;;;2.50;;
70487;SDS011;57976;48.174;16.370;2023-05-10T14:40:07;5.50;;;2.30;;
70487;SDS011;57976;48.174;16.370;2023-05-10T14:42:13;6.50;;;2.10;;
70487;SDS011;57976;48.174;16.370;2023-05-10T14:44:18;5.40;;;2.30;;
70487;SDS011;57976;48.174;16.370;2023-05-10T14:46:23;4.90;;;2.00;;
70487;SDS011;57976;48.174;16.370;2023-05-10T14:48:28;6.20;;;2.40;;
70487;SDS011;57976;48.174;16.370;2023-05-10T14:50:33;6.50;;;2.40;;
70487;SDS011;57976;48.174;16.370;2023-05-10T14:52:39;5.40;;;2.50;;
70487;SDS011;57976;48.174;16.370;2023-05-10T14:54:44;6.20;;;2.70;;
70487;SDS011;57976;48.174;16.370;2023-05-10T14:56:49;5.80;;;2.30;;
70487;SDS011;57976;48.174;16.370;2023-05-10T14:58:54;5.10;;;2.00;;
70487;SDS011;57976;48.174;16.370;2023-05-10T15:00:59;5.10;;;2.00;;
70487;SDS011;57976;48.174;16.370;2023-05-10T15:03:05;4.40;;;1.90;;
70487;SDS011;57976;48.174;16.370;2023-05-10T15:05:10;4.90;;;2.40;;
70487;SDS011;57976;48.174;16.370;2023-05-10T15:07:16;4.90;;;2.00;;
70487;SDS011;57976;48.174;16.370;2023-05-10T15:09:21;6.20;;;2.20;;
70487;SDS011;57976;48.174;16.370;2023-05-10T15:11:26;5.30;;;2.20;;
70487;SDS011;57976;48.174;16.370;2023-05-10T15:13:31;4.30;;;2.00;;
70487;SDS011;57976;48.174;16.370;2023-05-10T15:15:36;5.40;;;2.30;;
70487;SDS011;57976;48.174;16.370;2023-05-10T15:17:41;4.70;;;2.10;;
70487;SDS011;57976;48.174;16.370;2023-05-10T15:19:46;5.40;;;1.90;;
70487;SDS011;57976;48.174;16.370;2023-05-10T15:21:50;4.90;;;2.30;;
70487;SDS011;57976;48.174;16.370;2023-05-10T15:23:55;5.80;;;2.30;;
70487;SDS011;57976;48.174;16.370;2023-05-10T15:26:01;6.80;;;1.90;;
70487;SDS011;57976;48.174;16.370;2023-05-10T15:28:06;4.90;;;1.90;;
70487;SDS011;57976;48.174;16.370;2023-05-10T15:30:11;5.60;;;1.90;;
70487;SDS011;57976;48.174;16.370;2023-05-10T15:32:17;5.30;;;1.80;;
70487;SDS011;57976;48.174;16.370;2023-05-10T15:34:24;6.40;;;1.90;;
70487;SDS011;57976;48.174;16.370;2023-05-10T15:36:32;5.70;;;1.90;;
70487;SDS011;57976;48.174;16.370;2023-05-10T15:38:37;4.80;;;1.90;;
70487;SDS011;57976;48.174;16.370;2023-05-10T15:40:42;5.40;;;1.90;;
70487;SDS011;57976;48.174;16.370;2023-05-10T15:42:47;5.30;;;1.80;;
70487;SDS011;57976;48.174;16.370;2023-05-10T15:44:52;4.90;;;1.60;;
70487;SDS011;57976;48.174;16.370;2023-05-10T15:46:57;4.60;;;1.60;;
70487;SDS011;57976;48.174;16.370;2023-05-10T15:49:02;4.50;;;1.70;;
70487;SDS011;57976;48.174;16.370;2023-05-10T15:51:07;5.70;;;2.00;;
70487;SDS011;57976;48.174;16.370;2023-05-10T15:53:12;4.90;;;1.90;;
70487;SDS011;57976;48.174;16.370;2023-05-10T15:55:17;5.20;;;1.80;;
70487;SDS011;57976;48.174;16.370;2023-05-10T15:57:23;5.60;;;1.90;;
70487;SDS011;57976;48.174;16.370;2023-05-10T15:59:28;5.30;;;1.90;;
70487;SDS011;57976;48.174;16.370;2023-05-10T16:01:33;4.90;;;1.60;;
70487;SDS011;57976;48.174;16.370;2023-05-10T16:03:38;5.10;;;1.60;;
70487;SDS011;57976;48.174;16.370;2023-05-10T16:05:43;4.70;;;1.80;;
70487;SDS011;57976;48.174;16.370;2023-05-10T16:07:48;5.00;;;1.60;;
70487;SDS011;57976;48.174;16.370;2023-05-10T16:09:53;4.30;;;2.00;;
70487;SDS011;57976;48.174;16.370;2023-05-10T16:11:58;7.10;;;1.90;;
70487;SDS011;57976;48.174;16.370;2023-05-10T16:14:03;4.30;;;1.80;;
70487;SDS011;57976;48.174;16.370;2023-05-10T16:16:09;5.80;;;1.90;;
70487;SDS011;57976;48.174;16.370;2023-05-10T16:18:14;6.20;;;2.00;;
70487;SDS011;57976;48.174;16.370;2023-05-10T16:20:20;5.80;;;2.40;;
70487;SDS011;57976;48.174;16.370;2023-05-10T16:22:25;5.40;;;2.00;;
70487;SDS011;57976;48.174;16.370;2023-05-10T16:24:30;5.30;;;2.30;;
70487;SDS011;57976;48.174;16.370;2023-05-10T16:26:36;4.70;;;1.80;;
70487;SDS011;57976;48.174;16.370;2023-05-10T16:28:41;6.20;;;2.20;;
70487;SDS011;57976;48.174;16.370;2023-05-10T16:30:46;5.50;;;2.30;;
70487;SDS011;57976;48.174;16.370;2023-05-10T16:32:51;6.10;;;2.00;;
70487;SDS011;57976;48.174;16.370;2023-05-10T16:34:57;6.80;;;2.00;;
70487;SDS011;57976;48.174;16.370;2023-05-10T16:37:02;5.00;;;2.10;;
70487;SDS011;57976;48.174;16.370;2023-05-10T16:39:07;4.50;;;1.80;;
70487;SDS011;57976;48.174;16.370;2023-05-10T16:41:12;6.10;;;2.10;;
70487;SDS011;57976;48.174;16.370;2023-05-10T16:43:17;5.10;;;1.80;;
70487;SDS011;57976;48.174;16.370;2023-05-10T16:45:22;4.30;;;2.00;;
70487;SDS011;57976;48.174;16.370;2023-05-10T16:47:27;5.00;;;1.80;;
70487;SDS011;57976;48.174;16.370;2023-05-10T16:49:33;6.50;;;2.10;;
70487;SDS011;57976;48.174;16.370;2023-05-10T16:51:39;6.40;;;2.10;;
70487;SDS011;57976;48.174;16.370;2023-05-10T16:53:44;4.80;;;2.00;;
70487;SDS011;57976;48.174;16.370;2023-05-10T16:55:49;5.20;;;2.00;;
70487;SDS011;57976;48.174;16.370;2023-05-10T16:57:54;5.40;;;2.00;;
70487;SDS011;57976;48.174;16.370;2023-05-10T16:59:59;5.00;;;2.10;;
70487;SDS011;57976;48.174;16.370;2023-05-10T17:02:04;5.50;;;2.30;;
70487;SDS011;57976;48.174;16.370;2023-05-10T17:04:09;6.40;;;2.10;;
70487;SDS011;57976;48.174;16.370;2023-05-10T17:06:15;5.70;;;2.30;;
70487;SDS011;57976;48.174;16.370;2023-05-10T17:08:20;5.10;;;2.00;;
70487;SDS011;57976;48.174;16.370;2023-05-10T17:10:25;6.50;;;2.20;;
70487;SDS011;57976;48.174;16.370;2023-05-10T17:12:30;7.20;;;2.20;;
70487;SDS011;57976;48.174;16.370;2023-05-10T17:14:35;5.70;;;2.00;;
70487;SDS011;57976;48.174;16.370;2023-05-10T17:16:40;4.50;;;2.00;;
70487;SDS011;57976;48.174;16.370;2023-05-10T17:18:45;4.90;;;1.90;;
70487;SDS011;57976;48.174;16.370;2023-05-10T17:20:51;5.60;;;2.10;;
70487;SDS011;57976;48.174;16.370;2023-05-10T17:22:56;5.10;;;1.90;;
70487;SDS011;57976;48.174;16.370;2023-05-10T17:25:01;6.10;;;1.90;;
70487;SDS011;57976;48.174;16.370;2023-05-10T17:27:06;5.70;;;2.00;;
70487;SDS011;57976;48.174;16.370;2023-05-10T17:29:11;6.50;;;2.40;;
70487;SDS011;57976;48.174;16.370;2023-05-10T17:31:16;6.50;;;2.10;;
70487;SDS011;57976;48.174;16.370;2023-05-10T17:33:21;4.90;;;2.20;;
70487;SDS011;57976;48.174;16.370;2023-05-10T17:35:26;6.10;;;2.30;;
70487;SDS011;57976;48.174;16.370;2023-05-10T17:37:31;5.20;;;2.00;;
70487;SDS011;57976;48.174;16.370;2023-05-10T17:39:36;5.10;;;2.10;;
70487;SDS011;57976;48.174;16.370;2023-05-10T17:41:42;6.50;;;2.40;;
70487;SDS011;57976;48.174;16.370;2023-05-10T17:43:46;7.10;;;2.20;;
70487;SDS011;57976;48.174;16.370;2023-05-10T17:45:51;5.10;;;2.00;;
70487;SDS011;57976;48.174;16.370;2023-05-10T17:47:56;5.60;;;2.10;;
70487;SDS011;57976;48.174;16.370;2023-05-10T17:50:01;4.80;;;1.90;;
70487;SDS011;57976;48.174;16.370;2023-05-10T17:52:07;5.60;;;2.10;;
70487;SDS011;57976;48.174;16.370;2023-05-10T17:54:12;5.60;;;2.30;;
70487;SDS011;57976;48.174;16.370;2023-05-10T17:56:17;6.40;;;2.10;;
70487;SDS011;57976;48.174;16.370;2023-05-10T17:58:22;6.50;;;2.30;;
70487;SDS011;57976;48.174;16.370;2023-05-10T18:00:27;6.70;;;2.30;;
70487;SDS011;57976;48.174;16.370;2023-05-10T18:02:31;7.70;;;2.70;;
70487;SDS011;57976;48.174;16.370;2023-05-10T18:04:37;6.10;;;2.20;;
70487;SDS011;57976;48.174;16.370;2023-05-10T18:06:43;6.30;;;2.20;;
70487;SDS011;57976;48.174;16.370;2023-05-10T18:08:48;6.00;;;2.30;;
70487;SDS011;57976;48.174;16.370;2023-05-10T18:10:52;6.30;;;2.50;;
70487;SDS011;57976;48.174;16.370;2023-05-10T18:12:57;7.80;;;2.50;;
70487;SDS011;57976;48.174;16.370;2023-05-10T18:15:02;6.30;;;2.60;;
70487;SDS011;57976;48.174;16.370;2023-05-10T18:17:08;6.70;;;2.50;;
70487;SDS011;57976;48.174;16.370;2023-05-10T18:19:13;7.80;;;2.50;;
70487;SDS011;57976;48.174;16.370;2023-05-10T18:21:18;6.50;;;2.70;;
70487;SDS011;57976;48.174;16.370;2023-05-10T18:23:23;6.50;;;2.90;;
70487;SDS011;57976;48.174;16.370;2023-05-10T18:25:28;7.40;;;2.70;;
70487;SDS011;57976;48.174;16.370;2023-05-10T18:27:33;5.80;;;2.40;;
70487;SDS011;57976;48.174;16.370;2023-05-10T18:29:39;5.60;;;2.50;;
70487;SDS011;57976;48.174;16.370;2023-05-10T18:31:44;6.90;;;2.30;;
70487;SDS011;57976;48.174;16.370;2023-05-10T18:33:49;5.60;;;2.50;;
70487;SDS011;57976;48.174;16.370;2023-05-10T18:35:54;7.70;;;2.90;;
70487;SDS011;57976;48.174;16.370;2023-05-10T18:37:59;6.70;;;2.50;;
70487;SDS011;57976;48.174;16.370;2023-05-10T18:40:05;6.40;;;2.40;;
70487;SDS011;57976;48.174;16.370;2023-05-10T18:42:11;7.40;;;2.30;;
70487;SDS011;57976;48.174;16.370;2023-05-10T18:44:16;5.50;;;2.40;;
70487;SDS011;57976;48.174;16.370;2023-05-10T18:46:21;6.50;;;2.50;;
70487;SDS011;57976;48.174;16.370;2023-05-10T18:48:27;7.30;;;2.60;;
70487;SDS011;57976;48.174;16.370;2023-05-10T18:50:33;6.00;;;2.70;;
70487;SDS011;57976;48.174;16.370;2023-05-10T18:52:38;6.80;;;2.40;;
70487;SDS011;57976;48.174;16.370;2023-05-10T18:54:43;7.30;;;2.60;;
70487;SDS011;57976;48.174;16.370;2023-05-10T18:56:49;6.80;;;2.90;;
70487;SDS011;57976;48.174;16.370;2023-05-10T18:58:54;6.50;;;2.70;;
70487;SDS011;57976;48.174;16.370;2023-05-10T19:00:59;9.20;;;3.20;;
70487;SDS011;57976;48.174;16.370;2023-05-10T19:03:04;7.20;;;3.20;;
70487;SDS011;57976;48.174;16.370;2023-05-10T19:05:10;9.30;;;3.40;;
70487;SDS011;57976;48.174;16.370;2023-05-10T19:07:16;7.50;;;3.10;;
70487;SDS011;57976;48.174;16.370;2023-05-10T19:09:26;6.90;;;2.40;;
70487;SDS011;57976;48.174;16.370;2023-05-10T19:11:31;5.50;;;2.60;;
70487;SDS011;57976;48.174;16.370;2023-05-10T19:13:37;5.30;;;2.50;;
70487;SDS011;57976;48.174;16.370;2023-05-10T19:15:42;6.00;;;2.60;;
70487;SDS011;57976;48.174;16.370;2023-05-10T19:17:48;5.70;;;2.30;;
70487;SDS011;57976;48.174;16.370;2023-05-10T19:19:58;5.20;;;2.10;;
70487;SDS011;57976;48.174;16.370;2023-05-10T19:22:06;6.90;;;2.20;;
70487;SDS011;57976;48.174;16.370;2023-05-10T19:24:13;5.60;;;2.30;;
70487;SDS011;57976;48.174;16.370;2023-05-10T19:26:18;5.40;;;2.30;;
70487;SDS011;57976;48.174;16.370;2023-05-10T19:28:27;7.00;;;2.40;;
70487;SDS011;57976;48.174;16.370;2023-05-10T19:30:32;6.20;;;2.40;;
70487;SDS011;57976;48.174;16.370;2023-05-10T19:32:38;7.40;;;2.60;;
70487;SDS011;57976;48.174;16.370;2023-05-10T19:34:43;6.20;;;2.70;;
70487;SDS011;57976;48.174;16.370;2023-05-10T19:36:48;7.70;;;2.90;;
70487;SDS011;57976;48.174;16.370;2023-05-10T19:38:54;6.70;;;2.70;;
70487;SDS011;57976;48.174;16.370;2023-05-10T19:41:00;5.90;;;2.70;;
70487;SDS011;57976;48.174;16.370;2023-05-10T19:43:07;7.20;;;2.70;;
70487;SDS011;57976;48.174;16.370;2023-05-10T19:45:12;6.60;;;3.00;;
70487;SDS011;57976;48.174;16.370;2023-05-10T19:47:19;6.60;;;3.00;;
70487;SDS011;57976;48.174;16.370;2023-05-10T19:49:24;7.40;;;3.00;;
70487;SDS011;57976;48.174;16.370;2023-05-10T19:51:30;6.40;;;2.60;;
70487;SDS011;57976;48.174;16.370;2023-05-10T19:53:35;5.90;;;2.60;;
70487;SDS011;57976;48.174;16.370;2023-05-10T19:55:40;7.10;;;2.70;;
70487;SDS011;57976;48.174;16.370;2023-05-10T19:57:45;5.50;;;2.70;;
70487;SDS011;57976;48.174;16.370;2023-05-10T19:59:50;5.90;;;2.80;;
70487;SDS011;57976;48.174;16.370;2023-05-10T20:01:56;6.70;;;2.50;;
70487;SDS011;57976;48.174;16.370;2023-05-10T20:04:01;5.90;;;2.40;;
70487;SDS011;57976;48.174;16.370;2023-05-10T20:06:06;5.40;;;2.30;;
70487;SDS011;57976;48.174;16.370;2023-05-10T20:08:12;5.40;;;2.70;;
70487;SDS011;57976;48.174;16.370;2023-05-10T20:10:17;5.90;;;2.40;;
70487;SDS011;57976;48.174;16.370;2023-05-10T20:12:23;6.60;;;2.40;;
70487;SDS011;57976;48.174;16.370;2023-05-10T20:14:28;7.30;;;2.60;;
70487;SDS011;57976;48.174;16.370;2023-05-10T20:16:34;6.10;;;2.60;;
70487;SDS011;57976;48.174;16.370;2023-05-10T20:18:39;6.30;;;2.50;;
70487;SDS011;57976;48.174;16.370;2023-05-10T20:20:44;8.10;;;2.50;;
70487;SDS011;57976;48.174;16.370;2023-05-10T20:22:50;5.10;;;2.30;;
70487;SDS011;57976;48.174;16.370;2023-05-10T20:24:55;9.50;;;2.20;;
70487;SDS011;57976;48.174;16.370;2023-05-10T20:27:02;5.60;;;2.00;;
70487;SDS011;57976;48.174;16.370;2023-05-10T20:29:07;7.90;;;2.90;;
70487;SDS011;57976;48.174;16.370;2023-05-10T20:31:12;7.80;;;2.40;;
70487;SDS011;57976;48.174;16.370;2023-05-10T20:33:17;7.20;;;2.80;;
70487;SDS011;57976;48.174;16.370;2023-05-10T20:35:23;7.70;;;2.30;;
70487;SDS011;57976;48.174;16.370;2023-05-10T20:37:27;5.90;;;2.10;;